Time;durP1;ratioP1;P1;durP2;ratioP2;P2;SDS_P1;SDS_P2;PMS_P1;PMS_P2;Temp;Humidity;BMP_temperature;BMP_pressure;BME280_temperature;BME280_humidity;BME280_pressure;Samples;Min_cycle;Max_cycle;Signal;HPM_P1;HPM_P2
2022/06/11 00:01:38;;;;;;;20.67;6.28;;;;;;;15.52;80.80;100716.13;5087827;28;20024;-77
2022/06/11 00:04:08;;;;;;;16.67;6.57;;;;;;;15.58;80.42;100719.47;5106142;28;20103;-77
2022/06/11 00:06:37;;;;;;;17.33;6.68;;;;;;;15.59;80.80;100728.19;5105972;28;20027;-77
2022/06/11 00:09:04;;;;;;;16.13;6.75;;;;;;;15.58;80.73;100715.97;5105868;28;20115;-78
2022/06/11 00:11:30;;;;;;;13.32;6.82;;;;;;;15.64;80.30;100720.22;5105775;28;20059;-77
2022/06/11 00:13:55;;;;;;;15.07;6.68;;;;;;;15.61;80.67;100718.53;5105793;28;20082;-77
2022/06/11 00:16:23;;;;;;;15.18;7.25;;;;;;;15.58;80.81;100716.84;5105730;28;20020;-76
2022/06/11 00:18:51;;;;;;;13.30;6.65;;;;;;;15.58;80.57;100719.47;5105896;28;20020;-76
2022/06/11 00:21:17;;;;;;;12.85;6.90;;;;;;;15.56;80.86;100723.03;5105664;28;20098;-77
2022/06/11 00:23:44;;;;;;;12.43;6.80;;;;;;;15.54;81.31;100730.03;5105546;28;20093;-77
2022/06/11 00:26:10;;;;;;;18.20;6.78;;;;;;;15.51;81.52;100725.72;5105537;28;20229;-77
2022/06/11 00:28:36;;;;;;;19.35;7.43;;;;;;;15.52;81.45;100721.38;5105425;28;20028;-77
2022/06/11 00:31:03;;;;;;;17.52;7.75;;;;;;;15.49;81.38;100728.38;5087069;28;20028;-77
2022/06/11 00:33:29;;;;;;;22.05;7.95;;;;;;;15.49;81.44;100728.38;5105545;28;20016;-76
2022/06/11 00:35:55;;;;;;;14.85;8.38;;;;;;;15.47;81.60;100735.44;5087222;28;20035;-77
2022/06/11 00:38:21;;;;;;;17.92;7.88;;;;;;;15.45;82.01;100738.97;5105319;28;20020;-76
2022/06/11 00:40:49;;;;;;;19.58;7.55;;;;;;;15.41;82.09;100735.56;5105155;28;20508;-76
2022/06/11 00:43:18;;;;;;;22.75;8.85;;;;;;;15.39;82.15;100726.91;5105440;28;20027;-77
2022/06/11 00:45:51;;;;;;;19.90;8.00;;;;;;;15.42;81.67;100731.19;5105054;28;20042;-76
2022/06/11 00:48:29;;;;;;;20.05;6.93;;;;;;;15.33;81.34;100722.69;5105211;28;20043;-77
2022/06/11 00:51:02;;;;;;;25.23;6.57;;;;;;;15.38;80.95;100734.78;5105113;28;20028;-76
2022/06/11 00:53:30;;;;;;;20.30;7.50;;;;;;;15.36;80.37;100729.59;5104580;28;20020;-77
2022/06/11 00:55:56;;;;;;;25.75;5.93;;;;;;;15.32;79.77;100731.41;5104674;28;20050;-77
2022/06/11 00:58:30;;;;;;;22.65;6.03;;;;;;;15.29;79.56;100725.41;5105041;28;20044;-76
2022/06/11 01:00:58;;;;;;;21.45;6.20;;;;;;;15.33;79.26;100732.28;5104967;28;20024;-76
2022/06/11 01:03:28;;;;;;;23.25;5.97;;;;;;;15.29;78.75;100736.72;5104807;28;20050;-76
2022/06/11 01:06:35;;;;;;;25.73;6.50;;;;;;;15.32;78.32;100741.03;5104658;28;20028;-76
2022/06/11 01:09:35;;;;;;;18.40;5.55;;;;;;;15.28;78.06;100740.22;5104715;28;20024;-76
2022/06/11 01:12:08;;;;;;;21.98;6.03;;;;;;;15.25;77.21;100745.53;5086196;28;20024;-76
2022/06/11 01:15:01;;;;;;;18.88;6.63;;;;;;;15.25;76.78;100742.91;5104643;28;20020;-75
2022/06/11 01:17:51;;;;;;;22.00;6.53;;;;;;;15.23;76.49;100736.84;5104536;28;20074;-76
2022/06/11 01:20:46;;;;;;;20.23;5.65;;;;;;;15.20;76.34;100734.31;5104646;28;20023;-76
2022/06/11 01:23:23;;;;;;;28.58;6.68;;;;;;;15.18;75.95;100723.88;5093360;28;20036;-76
2022/06/11 01:26:17;;;;;;;27.35;7.28;;;;;;;15.09;75.92;100724.97;5085924;28;20031;-75
2022/06/11 01:28:49;;;;;;;24.88;6.07;;;;;;;15.11;75.65;100731.00;5104445;28;20020;-76
2022/06/11 01:31:34;;;;;;;25.83;7.38;;;;;;;15.11;76.08;100724.94;5104379;28;20053;-76
2022/06/11 01:34:20;;;;;;;26.58;7.20;;;;;;;15.08;75.82;100723.22;5104423;28;20028;-77
2022/06/11 01:36:50;;;;;;;26.52;6.65;;;;;;;15.06;75.85;100721.53;5104249;28;20084;-77
2022/06/11 01:39:28;;;;;;;26.52;7.93;;;;;;;15.08;75.94;100722.38;5104174;28;20557;-77
2022/06/11 01:42:04;;;;;;;26.35;6.47;;;;;;;15.08;76.12;100714.53;5085444;28;20078;-77
2022/06/11 01:44:35;;;;;;;25.20;7.85;;;;;;;15.06;76.07;100718.94;5104204;28;20083;-77
2022/06/11 01:47:03;;;;;;;19.92;6.75;;;;;;;15.03;76.25;100719.00;5104042;28;20059;-77
2022/06/11 01:49:28;;;;;;;22.90;6.70;;;;;;;15.01;76.24;100720.78;5085814;28;20434;-76
2022/06/11 01:51:59;;;;;;;31.23;7.90;;;;;;;14.97;76.56;100714.75;5104144;28;20075;-77
2022/06/11 01:54:36;;;;;;;26.23;7.72;;;;;;;14.98;76.76;100717.31;5105682;28;20213;-77
2022/06/11 01:57:26;;;;;;;23.45;7.22;;;;;;;14.97;76.89;100719.97;5104802;28;20456;-76
2022/06/11 02:00:16;;;;;;;31.42;8.77;;;;;;;14.95;76.93;100706.09;5103839;28;20016;-77
2022/06/11 02:03:15;;;;;;;30.48;8.82;;;;;;;14.91;77.26;100713.13;5103633;28;20031;-77
2022/06/11 02:05:50;;;;;;;27.17;8.43;;;;;;;14.86;77.57;100705.41;5103680;28;20024;-76
2022/06/11 02:08:59;;;;;;;28.85;8.02;;;;;;;14.83;77.67;100704.59;5104015;28;20038;-77
2022/06/11 02:11:39;;;;;;;21.75;8.48;;;;;;;14.81;77.85;100715.09;5020798;28;20030;-76
2022/06/11 02:14:38;;;;;;;28.13;8.45;;;;;;;14.78;78.41;100719.47;5021245;28;20037;-77
2022/06/11 02:17:14;;;;;;;22.65;7.55;;;;;;;14.81;78.13;100715.09;5020403;28;20098;-77
2022/06/11 02:19:49;;;;;;;22.85;7.32;;;;;;;14.82;78.21;100719.44;5020930;28;20036;-77
2022/06/11 02:22:25;;;;;;;23.55;8.25;;;;;;;14.80;78.40;100710.75;5020728;28;20030;-76
2022/06/11 02:25:01;;;;;;;24.90;9.88;;;;;;;14.76;78.93;100711.66;5021061;28;20077;-76
2022/06/11 02:27:29;;;;;;;27.58;9.35;;;;;;;14.77;78.88;100708.19;5020817;28;20187;-78
2022/06/11 02:29:56;;;;;;;28.02;9.40;;;;;;;14.79;78.71;100716.84;5020703;28;20180;-78
2022/06/11 02:32:24;;;;;;;23.67;8.75;;;;;;;14.81;78.76;100716.84;5020829;28;20030;-78
2022/06/11 02:34:54;;;;;;;27.55;9.25;;;;;;;14.80;78.92;100716.00;5020896;28;20065;-78
2022/06/11 02:37:28;;;;;;;34.42;9.93;;;;;;;14.82;79.09;100710.72;5020455;28;20022;-77
2022/06/11 02:39:58;;;;;;;27.67;8.50;;;;;;;14.81;78.95;100714.25;5020710;28;20042;-77
2022/06/11 02:42:24;;;;;;;38.33;8.82;;;;;;;14.80;79.29;100708.16;5020404;28;20064;-77
2022/06/11 02:44:50;;;;;;;27.60;9.82;;;;;;;14.72;79.41;100705.66;5020618;28;20266;-77
2022/06/11 02:47:18;;;;;;;28.40;9.65;;;;;;;14.72;79.51;100710.03;5077535;28;20232;-77
2022/06/11 02:49:44;;;;;;;29.05;9.40;;;;;;;14.70;79.18;100706.56;5103405;28;20030;-77
2022/06/11 02:52:15;;;;;;;28.08;9.63;;;;;;;14.67;79.60;100706.63;5103428;28;20345;-73
2022/06/11 02:54:43;;;;;;;25.85;10.85;;;;;;;14.61;79.58;100718.09;5103297;28;20178;-73
2022/06/11 02:57:13;;;;;;;29.17;9.32;;;;;;;14.65;79.37;100711.06;5102974;28;20063;-74
2022/06/11 02:59:39;;;;;;;24.05;8.23;;;;;;;14.71;80.05;100729.22;5103438;28;20027;-74
2022/06/11 03:02:05;;;;;;;30.88;9.75;;;;;;;14.72;79.75;100723.97;5103192;28;20091;-73
2022/06/11 03:04:31;;;;;;;21.45;9.35;;;;;;;14.72;79.89;100729.19;5103148;28;20071;-73
2022/06/11 03:06:57;;;;;;;26.98;8.68;;;;;;;14.75;79.99;100728.25;5103073;28;20027;-73
2022/06/11 03:09:27;;;;;;;19.33;8.52;;;;;;;14.78;79.74;100724.69;5103217;28;20024;-73
2022/06/11 03:11:53;;;;;;;33.38;9.13;;;;;;;14.78;79.71;100728.19;5103004;28;20016;-73
2022/06/11 03:14:18;;;;;;;31.70;9.02;;;;;;;14.82;79.85;100723.78;5103090;28;20047;-73
2022/06/11 03:16:44;;;;;;;32.92;8.95;;;;;;;14.81;80.15;100725.53;5103100;28;20071;-73
2022/06/11 03:19:11;;;;;;;29.52;8.70;;;;;;;14.81;80.03;100730.75;5107152;28;20441;-73
2022/06/11 03:21:37;;;;;;;33.08;8.80;;;;;;;14.84;79.66;100724.63;5106967;28;20034;-73
2022/06/11 03:24:03;;;;;;;30.50;8.55;;;;;;;14.83;80.04;100723.75;5106858;28;20020;-73
2022/06/11 03:26:28;;;;;;;40.97;9.57;;;;;;;14.81;79.67;100722.94;5106597;28;20035;-73
2022/06/11 03:28:54;;;;;;;29.90;8.05;;;;;;;14.79;79.79;100718.59;5106900;28;20028;-73
2022/06/11 03:31:19;;;;;;;26.77;8.98;;;;;;;14.79;80.02;100714.25;5106685;28;20024;-73
2022/06/11 03:33:45;;;;;;;24.35;8.68;;;;;;;14.80;80.00;100713.38;5106716;28;20076;-73
2022/06/11 03:36:13;;;;;;;26.13;7.60;;;;;;;14.86;79.74;100713.25;5106521;28;20035;-73
2022/06/11 03:38:42;;;;;;;31.10;7.72;;;;;;;14.95;79.58;100720.00;5106516;28;20091;-73
2022/06/11 03:41:08;;;;;;;22.00;7.68;;;;;;;14.98;79.32;100721.72;5106422;28;20047;-73
2022/06/11 03:43:34;;;;;;;31.35;9.07;;;;;;;14.97;79.00;100731.31;5106431;28;20420;-73
2022/06/11 03:45:59;;;;;;;22.95;7.95;;;;;;;14.98;78.93;100725.16;5106278;28;20035;-73
2022/06/11 03:48:28;;;;;;;30.13;8.63;;;;;;;14.95;78.83;100724.41;5106612;28;20035;-72
2022/06/11 03:50:55;;;;;;;25.20;7.80;;;;;;;14.93;78.61;100729.66;5106488;28;20073;-72
2022/06/11 03:53:21;;;;;;;30.55;8.00;;;;;;;14.92;78.23;100733.16;5106645;28;20087;-72
2022/06/11 03:55:46;;;;;;;23.27;7.47;;;;;;;14.92;78.21;100727.91;5105861;28;20131;-72
2022/06/11 03:58:13;;;;;;;27.75;9.02;;;;;;;14.90;77.92;100727.13;5105983;28;20076;-73
2022/06/11 04:03:24;;;;;;;25.88;7.03;;;;;;;14.79;77.05;100716.84;5106116;28;20027;-73
2022/06/11 04:05:51;;;;;;;24.83;6.93;;;;;;;14.82;77.31;100724.66;5105999;28;20049;-73
2022/06/11 04:08:17;;;;;;;28.83;7.90;;;;;;;14.86;77.10;100726.31;5087737;28;20024;-73
2022/06/11 04:10:43;;;;;;;20.38;7.05;;;;;;;14.89;76.87;100721.91;5105912;28;20064;-73
2022/06/11 04:13:09;;;;;;;28.25;6.90;;;;;;;14.91;76.93;100714.88;5105816;28;20072;-73
2022/06/11 04:15:35;;;;;;;23.38;6.50;;;;;;;15.07;77.06;100718.91;5105701;28;20031;-73
2022/06/11 04:18:03;;;;;;;22.70;7.60;;;;;;;15.22;76.91;100722.06;5105920;28;20023;-73
2022/06/11 04:20:28;;;;;;;25.08;6.50;;;;;;;15.34;76.46;100713.94;5105750;28;20020;-73
2022/06/11 04:22:54;;;;;;;30.85;7.60;;;;;;;15.51;75.95;100715.25;5105761;28;20092;-74
2022/06/11 04:25:21;;;;;;;30.73;7.60;;;;;;;15.68;75.54;100711.38;5105449;28;20017;-73
2022/06/11 04:27:53;;;;;;;24.48;7.05;;;;;;;15.89;75.61;100720.47;5105638;28;20032;-73
2022/06/11 04:30:24;;;;;;;28.85;7.47;;;;;;;15.91;74.54;100712.56;5104506;28;20031;-73
2022/06/11 04:32:49;;;;;;;34.30;7.88;;;;;;;15.97;74.32;100718.50;5105482;28;20088;-73
2022/06/11 04:35:15;;;;;;;25.63;6.43;;;;;;;16.08;74.24;100714.78;5105548;28;20081;-73
2022/06/11 04:37:41;;;;;;;27.02;7.38;;;;;;;16.08;74.24;100718.25;5105468;28;20031;-73
2022/06/11 04:40:10;;;;;;;27.73;7.28;;;;;;;16.21;73.85;100723.16;5105452;28;20028;-73
2022/06/11 04:42:36;;;;;;;26.92;7.65;;;;;;;16.19;73.59;100728.44;5105317;28;20020;-73
2022/06/11 04:45:04;;;;;;;29.10;7.30;;;;;;;16.14;73.50;100724.22;5105199;28;20076;-73
2022/06/11 04:47:31;;;;;;;24.50;7.32;;;;;;;16.12;73.40;100726.03;5105135;28;20125;-73
2022/06/11 04:49:59;;;;;;;22.55;6.65;;;;;;;16.11;73.44;100735.63;5105239;28;20039;-73
2022/06/11 04:52:25;;;;;;;25.33;8.75;;;;;;;16.11;73.50;100727.78;5105371;28;20020;-73
2022/06/11 04:54:52;;;;;;;25.55;6.72;;;;;;;16.29;73.10;100730.81;5086722;28;20026;-72
2022/06/11 04:57:18;;;;;;;20.48;7.20;;;;;;;16.51;72.39;100723.22;5104683;28;20052;-72
2022/06/11 04:59:44;;;;;;;29.10;7.47;;;;;;;16.55;71.57;100735.31;5104964;28;20157;-74
2022/06/11 05:02:10;;;;;;;25.88;6.50;;;;;;;16.62;70.55;100729.91;5104980;28;20032;-73
2022/06/11 05:04:35;;;;;;;22.30;7.10;;;;;;;16.48;69.84;100728.53;5104920;28;20020;-72
2022/06/11 05:07:00;;;;;;;18.23;6.70;;;;;;;16.39;70.10;100732.25;5104690;28;20023;-72
2022/06/11 05:09:30;;;;;;;22.00;6.70;;;;;;;16.75;71.50;100736.53;5104890;28;20028;-72
2022/06/11 05:11:57;;;;;;;31.30;7.13;;;;;;;17.50;70.74;100734.28;5104536;28;20016;-72
2022/06/11 05:14:24;;;;;;;22.98;5.72;;;;;;;18.09;69.32;100732.34;5104702;28;20461;-72
2022/06/11 05:16:50;;;;;;;27.38;6.45;;;;;;;18.25;65.35;100729.19;5104458;28;20031;-75
2022/06/11 05:19:18;;;;;;;20.88;5.82;;;;;;;18.15;64.31;100738.28;5104838;28;20316;-73
2022/06/11 05:21:45;;;;;;;32.55;7.18;;;;;;;17.97;64.05;100738.03;5104392;28;20028;-73
2022/06/11 05:24:11;;;;;;;21.40;6.72;;;;;;;17.94;64.85;100740.72;5104484;28;20035;-74
2022/06/11 05:26:43;;;;;;;21.52;5.43;;;;;;;18.06;64.71;100735.06;5104327;28;20028;-74
2022/06/11 05:29:14;;;;;;;17.73;5.75;;;;;;;18.31;63.69;100742.13;5104551;28;20019;-74
2022/06/11 05:31:40;;;;;;;19.80;5.68;;;;;;;18.78;62.69;100740.44;5104491;28;20080;-74
2022/06/11 05:34:05;;;;;;;23.15;5.22;;;;;;;19.27;62.41;100738.59;5104371;28;20077;-73
2022/06/11 05:36:30;;;;;;;21.88;6.20;;;;;;;19.80;61.11;100739.09;5104235;28;20470;-74
2022/06/11 05:38:56;;;;;;;22.70;6.05;;;;;;;20.03;59.02;100745.22;5104249;28;20043;-73
2022/06/11 05:41:21;;;;;;;27.48;6.72;;;;;;;19.91;57.74;100746.56;5103817;28;20020;-74
2022/06/11 05:43:47;;;;;;;22.50;6.57;;;;;;;19.82;58.00;100746.00;5104124;28;20032;-74
2022/06/11 05:46:16;;;;;;;21.10;6.07;;;;;;;19.50;58.27;100728.94;5103988;28;20031;-74
2022/06/11 05:48:52;;;;;;;21.67;5.60;;;;;;;19.48;58.60;100736.91;5104201;28;20150;-74
2022/06/11 05:51:25;;;;;;;24.08;5.93;;;;;;;19.40;58.46;100737.22;5104243;28;20031;-73
2022/06/11 05:53:53;;;;;;;32.78;6.05;;;;;;;19.52;58.67;100743.75;5103981;28;20055;-73
2022/06/11 05:56:19;;;;;;;24.90;6.20;;;;;;;19.38;58.51;100748.69;5103687;28;20484;-73
2022/06/11 05:58:50;;;;;;;17.27;6.57;;;;;;;19.56;59.19;100740.06;5085545;28;20051;-73
2022/06/11 06:01:18;;;;;;;24.85;6.05;;;;;;;19.56;57.49;100753.25;5103951;28;20217;-73
2022/06/11 06:03:44;;;;;;;19.67;4.93;;;;;;;19.31;57.65;100754.22;5103869;28;20074;-73
2022/06/11 06:06:09;;;;;;;20.90;5.63;;;;;;;19.69;57.78;100750.97;5103643;28;20050;-74
2022/06/11 06:08:34;;;;;;;25.67;5.47;;;;;;;20.38;57.17;100748.09;5103813;28;20019;-73
2022/06/11 06:11:00;;;;;;;26.98;5.90;;;;;;;20.76;54.72;100742.00;5103697;28;20022;-74
2022/06/11 06:16:09;;;;;;;17.30;5.25;;;;;;;21.26;53.68;100752.91;5103615;28;20031;-73
2022/06/11 06:18:35;;;;;;;23.60;6.10;;;;;;;21.19;52.48;100754.13;5103710;28;20020;-73
2022/06/11 06:21:00;;;;;;;19.65;5.30;;;;;;;21.49;52.08;100758.88;5085497;28;20031;-72
2022/06/11 06:23:26;;;;;;;18.92;5.00;;;;;;;22.07;52.46;100755.19;5103438;28;20152;-72
2022/06/11 06:25:51;;;;;;;20.38;5.57;;;;;;;22.96;51.23;100748.75;5103306;28;20058;-72
2022/06/11 06:28:16;;;;;;;16.50;5.22;;;;;;;23.55;48.11;100739.31;5103465;28;20020;-72
2022/06/11 06:30:42;;;;;;;19.27;5.57;;;;;;;24.10;47.19;100752.03;5103522;28;20054;-72
2022/06/11 06:33:07;;;;;;;18.90;5.95;;;;;;;24.12;45.88;100755.44;5103386;28;20016;-73
2022/06/11 06:35:33;;;;;;;26.23;6.50;;;;;;;23.43;46.18;100762.06;5103508;28;20020;-71
2022/06/11 06:37:59;;;;;;;24.15;5.97;;;;;;;22.75;47.12;100762.22;5103384;28;20197;-72
2022/06/11 06:40:25;;;;;;;23.67;5.78;;;;;;;22.45;47.53;100760.25;5103149;28;20030;-73
2022/06/11 06:42:50;;;;;;;22.63;6.13;;;;;;;22.12;48.36;100766.38;5103195;28;20087;-74
2022/06/11 06:45:15;;;;;;;25.80;6.03;;;;;;;22.46;48.69;100764.59;5103359;28;20384;-74
2022/06/11 06:47:41;;;;;;;18.92;4.93;;;;;;;23.15;47.91;100766.25;5103268;28;20035;-74
2022/06/11 06:50:07;;;;;;;24.25;5.60;;;;;;;23.60;45.78;100754.94;5103432;28;20020;-72
2022/06/11 06:52:33;;;;;;;22.75;6.13;;;;;;;24.13;44.91;100767.75;5086319;28;20012;-74
2022/06/11 06:54:58;;;;;;;15.93;4.50;;;;;;;24.12;43.30;100761.59;5107169;28;20016;-72
2022/06/11 06:57:23;;;;;;;21.23;5.40;;;;;;;23.58;43.55;100762.97;5106970;28;20040;-72
2022/06/11 06:59:49;;;;;;;18.38;5.35;;;;;;;23.09;44.70;100778.03;5107412;28;20024;-72
2022/06/11 07:02:14;;;;;;;18.10;5.97;;;;;;;22.44;45.61;100771.78;5107038;28;20462;-72
2022/06/11 07:04:40;;;;;;;19.60;4.85;;;;;;;22.12;47.05;100769.03;5107371;28;20019;-72
2022/06/11 07:07:06;;;;;;;22.67;6.30;;;;;;;21.90;47.21;100764.84;5106913;28;20032;-72
2022/06/11 07:09:31;;;;;;;15.75;5.28;;;;;;;21.75;47.61;100758.50;5107317;28;20081;-72
2022/06/11 07:11:57;;;;;;;21.40;6.05;;;;;;;21.63;48.02;100766.09;5106752;28;20027;-71
2022/06/11 07:14:23;;;;;;;27.27;6.22;;;;;;;21.79;48.52;100763.59;5107099;28;20045;-71
2022/06/11 07:16:55;;;;;;;19.13;5.50;;;;;;;22.13;48.24;100765.44;5106856;28;20414;-71
2022/06/11 07:19:32;;;;;;;19.85;5.60;;;;;;;22.37;46.96;100751.88;5107064;28;20035;-71
2022/06/11 07:22:03;;;;;;;18.58;6.13;;;;;;;22.28;47.22;100767.28;5106947;28;20421;-73
2022/06/11 07:24:32;;;;;;;16.02;4.95;;;;;;;22.45;46.85;100770.84;5106735;28;20083;-73
2022/06/11 07:27:04;;;;;;;19.85;5.63;;;;;;;22.90;46.61;100773.78;5106527;28;20062;-72
2022/06/11 07:29:45;;;;;;;16.08;5.07;;;;;;;23.38;45.52;100751.75;5106842;28;20024;-72
2022/06/11 07:32:16;;;;;;;22.48;5.60;;;;;;;23.99;44.21;100756.16;5106977;28;20076;-73
2022/06/11 07:34:42;;;;;;;22.20;5.55;;;;;;;24.41;43.41;100757.31;5107155;28;20016;-73
2022/06/11 07:37:08;;;;;;;14.50;4.97;;;;;;;24.80;42.61;100762.84;5106383;28;20032;-73
2022/06/11 07:39:34;;;;;;;18.80;5.10;;;;;;;25.22;42.12;100766.41;5106479;28;20050;-73
2022/06/11 07:41:59;;;;;;;23.52;5.57;;;;;;;25.62;41.62;100764.75;5106181;28;20032;-74
2022/06/11 07:44:25;;;;;;;16.52;4.85;;;;;;;26.16;40.58;100762.91;5106883;28;20058;-74
2022/06/11 07:46:50;;;;;;;16.70;5.15;;;;;;;26.13;38.35;100760.47;5106276;28;20020;-75
2022/06/11 07:49:16;;;;;;;18.88;4.80;;;;;;;25.67;38.80;100759.97;5106329;28;20032;-74
2022/06/11 07:51:41;;;;;;;22.80;6.13;;;;;;;25.31;39.52;100766.75;5106205;28;20031;-75
2022/06/11 07:54:07;;;;;;;15.18;4.88;;;;;;;25.27;39.04;100752.81;5106203;28;20031;-74
2022/06/11 07:56:32;;;;;;;16.80;5.28;;;;;;;25.35;39.72;100763.78;5106023;28;20053;-74
2022/06/11 07:58:58;;;;;;;17.67;4.82;;;;;;;25.29;39.13;100755.38;5106170;28;20024;-74
2022/06/11 08:01:23;;;;;;;16.02;4.63;;;;;;;25.24;39.28;100769.81;5106276;28;20045;-74
2022/06/11 08:03:48;;;;;;;22.40;4.68;;;;;;;25.21;39.48;100769.13;5105716;28;20024;-74
2022/06/11 08:06:14;;;;;;;13.98;4.55;;;;;;;25.44;39.39;100774.75;5106007;28;20024;-75
2022/06/11 08:08:40;;;;;;;17.20;5.65;;;;;;;25.64;38.68;100773.47;5105949;28;20039;-75
2022/06/11 08:11:07;;;;;;;16.38;5.85;;;;;;;25.78;38.25;100763.72;5087696;28;20024;-73
2022/06/11 08:13:33;;;;;;;21.42;4.90;;;;;;;26.13;38.70;100768.44;5105984;28;20096;-70
2022/06/11 08:16:01;;;;;;;18.38;5.55;;;;;;;26.40;37.90;100771.97;5105733;28;20026;-71
2022/06/11 08:18:29;;;;;;;16.83;5.00;;;;;;;26.41;37.19;100771.88;5106102;28;20035;-71
2022/06/11 08:20:55;;;;;;;21.63;5.40;;;;;;;26.50;37.42;100778.38;5105777;28;20031;-71
2022/06/11 08:23:22;;;;;;;19.25;5.53;;;;;;;26.62;36.30;100771.31;5105798;28;20137;-71
2022/06/11 08:25:49;;;;;;;16.55;4.70;;;;;;;26.41;36.31;100771.88;5105605;28;20145;-70
2022/06/11 08:28:15;;;;;;;21.85;6.00;;;;;;;26.21;37.42;100773.25;5105760;28;20091;-71
2022/06/11 08:30:42;;;;;;;14.65;4.38;;;;;;;26.31;37.72;100774.31;5105572;28;20028;-71
2022/06/11 08:33:07;;;;;;;19.23;5.65;;;;;;;26.45;37.42;100775.19;5105706;28;20027;-71
2022/06/11 08:35:34;;;;;;;16.42;5.03;;;;;;;26.33;37.24;100767.09;5105712;28;20046;-71
2022/06/11 08:38:01;;;;;;;12.30;4.60;;;;;;;26.28;36.84;100773.66;5105386;28;20059;-71
2022/06/11 08:40:50;;;;;;;16.63;4.70;;;;;;;26.26;36.71;100781.75;5105382;28;20028;-71
2022/06/11 08:43:24;;;;;;;15.02;4.50;;;;;;;26.45;36.89;100772.50;5105434;28;20081;-71
2022/06/11 08:45:54;;;;;;;14.00;4.35;;;;;;;26.60;36.77;100773.22;5105105;28;20036;-71
2022/06/11 08:48:29;;;;;;;16.20;4.50;;;;;;;26.55;36.31;100775.38;5105433;28;20016;-71
2022/06/11 08:51:02;;;;;;;13.68;4.57;;;;;;;26.46;36.85;100774.19;5105242;28;20024;-71
2022/06/11 08:53:30;;;;;;;14.48;5.32;;;;;;;26.35;36.96;100769.63;5105175;28;20019;-71
2022/06/11 08:55:56;;;;;;;20.75;5.07;;;;;;;26.34;37.46;100774.09;5105092;28;20020;-73
2022/06/11 08:58:21;;;;;;;23.95;5.63;;;;;;;26.24;37.95;100776.53;5104790;28;20115;-71
2022/06/11 09:01:25;;;;;;;14.57;4.28;;;;;;;26.20;38.41;100776.88;5104998;28;20388;-71
2022/06/11 09:04:07;;;;;;;22.30;6.70;;;;;;;26.52;38.56;100781.75;5080359;28;20059;-71
2022/06/11 09:06:55;;;;;;;17.10;5.07;;;;;;;26.66;37.79;100785.25;5104929;28;20024;-71
2022/06/11 09:09:35;;;;;;;15.32;4.72;;;;;;;26.57;37.23;100779.63;5105080;28;20032;-71
2022/06/11 09:12:07;;;;;;;19.27;6.00;;;;;;;26.54;37.92;100784.31;5104688;28;20024;-70
2022/06/11 09:14:49;;;;;;;17.45;4.68;;;;;;;27.06;36.41;100776.25;5104379;28;20032;-70
2022/06/11 09:17:44;;;;;;;16.77;4.65;;;;;;;27.13;35.21;100780.16;5104699;28;20494;-72
2022/06/11 09:20:36;;;;;;;16.65;4.75;;;;;;;26.91;35.76;100776.38;5101987;28;20519;-72
2022/06/11 09:23:29;;;;;;;15.40;4.85;;;;;;;26.79;36.76;100778.09;5086487;28;20115;-69
2022/06/11 09:26:02;;;;;;;18.67;4.68;;;;;;;27.29;36.15;100782.53;5104039;28;20027;-70
2022/06/11 09:28:42;;;;;;;14.05;4.32;;;;;;;27.69;35.22;100786.75;5104597;28;20016;-68
2022/06/11 09:31:33;;;;;;;13.25;4.63;;;;;;;27.67;34.72;100778.00;5104088;28;20156;-67
2022/06/11 09:34:10;;;;;;;16.60;4.47;;;;;;;27.63;34.41;100778.31;5104532;28;20027;-67
2022/06/11 09:36:40;;;;;;;15.88;4.88;;;;;;;27.58;35.08;100789.34;5104199;28;20020;-71
2022/06/11 09:39:18;;;;;;;16.90;4.45;;;;;;;27.58;35.14;100784.00;5104345;28;20036;-65
2022/06/11 09:42:03;;;;;;;15.50;5.20;;;;;;;27.65;34.92;100784.41;5104144;28;20050;-65
2022/06/11 09:44:53;;;;;;;14.63;4.22;;;;;;;27.42;34.71;100785.16;5085863;28;20035;-63
2022/06/11 09:47:43;;;;;;;14.10;4.80;;;;;;;26.79;35.19;100785.25;5103823;28;20571;-68
2022/06/11 09:50:24;;;;;;;17.92;4.75;;;;;;;26.35;35.87;100780.28;5104048;28;20051;-67
2022/06/11 09:53:13;;;;;;;19.40;5.22;;;;;;;26.06;35.97;100780.44;5104081;28;20012;-67
2022/06/11 09:55:54;;;;;;;16.73;5.15;;;;;;;26.05;36.50;100786.75;5085814;28;20112;-68
2022/06/11 09:58:29;;;;;;;14.65;4.50;;;;;;;26.15;36.83;100782.47;5103639;28;20044;-67
2022/06/11 10:01:00;;;;;;;14.73;3.95;;;;;;;26.42;35.42;100792.19;5103935;28;20031;-66
2022/06/11 10:03:58;;;;;;;18.05;4.82;;;;;;;26.22;35.35;100786.44;5103634;28;20024;-65
2022/06/11 10:06:29;;;;;;;12.57;3.53;;;;;;;26.04;34.16;100769.91;5103409;28;20054;-66
2022/06/11 10:09:00;;;;;;;15.75;4.28;;;;;;;25.73;35.18;100786.16;5104015;28;20070;-71
2022/06/11 10:11:32;;;;;;;14.73;4.32;;;;;;;25.80;35.21;100775.13;5103701;28;20032;-67
2022/06/11 10:14:28;;;;;;;12.93;4.10;;;;;;;25.83;35.26;100790.88;5103527;28;20099;-67
2022/06/11 10:17:09;;;;;;;14.88;3.83;;;;;;;26.00;35.52;100784.41;5103088;28;20081;-67
2022/06/11 10:19:42;;;;;;;11.73;3.60;;;;;;;26.53;35.53;100790.59;5103522;28;20497;-68
2022/06/11 10:22:28;;;;;;;15.07;3.88;;;;;;;27.18;34.15;100788.66;5103360;28;20030;-67
2022/06/11 10:24:57;;;;;;;17.55;3.80;;;;;;;27.52;32.96;100787.13;5103576;28;20024;-67
2022/06/11 10:27:24;;;;;;;14.68;3.88;;;;;;;27.56;32.61;100786.78;5103134;28;20051;-66
2022/06/11 10:29:55;;;;;;;14.80;3.50;;;;;;;27.55;32.38;100781.56;5103365;28;20024;-65
2022/06/11 10:32:26;;;;;;;13.43;3.63;;;;;;;27.46;31.67;100781.28;5103080;28;20043;-71
2022/06/11 10:35:16;;;;;;;15.73;4.57;;;;;;;26.86;32.60;100783.84;5103340;28;20020;-68
2022/06/11 10:38:01;;;;;;;11.82;3.45;;;;;;;26.69;32.62;100790.38;5092800;28;20504;-69
2022/06/11 10:40:33;;;;;;;13.45;4.43;;;;;;;26.27;32.76;100793.22;5103461;28;20036;-67
2022/06/11 10:43:05;;;;;;;18.63;4.72;;;;;;;26.18;32.96;100789.41;5103255;28;20133;-66
2022/06/11 10:45:31;;;;;;;13.05;3.42;;;;;;;26.17;32.87;100796.53;5103176;28;20113;-68
2022/06/11 10:48:00;;;;;;;13.50;3.97;;;;;;;26.35;31.53;100793.59;5103184;28;20035;-68
2022/06/11 10:50:33;;;;;;;14.80;3.78;;;;;;;26.43;31.04;100788.59;5103188;28;20069;-68
2022/06/11 10:53:05;;;;;;;13.32;4.32;;;;;;;26.50;31.32;100793.47;5103147;28;20027;-69
2022/06/11 10:55:40;;;;;;;12.98;3.60;;;;;;;26.31;31.78;100784.09;5103016;28;20050;-65
2022/06/11 10:58:23;;;;;;;13.52;3.83;;;;;;;25.97;32.04;100782.81;5102686;28;20201;-65
2022/06/11 11:00:55;;;;;;;17.92;4.53;;;;;;;25.32;32.79;100787.06;5103045;28;20016;-65
2022/06/11 11:03:29;;;;;;;12.18;3.22;;;;;;;24.49;33.72;100779.75;5102923;28;20036;-66
2022/06/11 11:06:28;;;;;;;15.48;3.75;;;;;;;23.73;35.24;100779.78;5102949;28;20020;-65
2022/06/11 11:09:04;;;;;;;10.25;3.67;;;;;;;23.12;35.97;100787.59;5087394;28;20031;-65
2022/06/11 11:11:37;;;;;;;13.40;3.83;;;;;;;22.54;38.14;100782.72;5102843;28;20087;-66
2022/06/11 11:14:14;;;;;;;18.10;4.20;;;;;;;22.02;38.26;100785.38;5102838;28;20073;-65
2022/06/11 11:16:46;;;;;;;10.35;3.38;;;;;;;21.49;39.88;100774.72;5102743;28;20030;-67
2022/06/11 11:19:19;;;;;;;11.52;4.28;;;;;;;21.18;42.13;100786.75;5102863;28;20027;-66
2022/06/11 11:21:51;;;;;;;14.00;3.65;;;;;;;20.92;41.05;100781.78;5103092;28;20024;-65
2022/06/11 11:24:22;;;;;;;15.27;3.40;;;;;;;20.65;41.60;100781.22;5102854;28;20042;-66
2022/06/11 11:26:56;;;;;;;12.20;3.55;;;;;;;20.47;42.77;100774.97;5102597;28;20058;-66
2022/06/11 11:29:28;;;;;;;17.20;3.95;;;;;;;20.30;43.30;100781.84;5102839;28;20020;-65
2022/06/11 11:31:53;;;;;;;17.35;3.47;;;;;;;20.05;44.83;100780.25;5102528;28;20024;-65
2022/06/11 11:34:29;;;;;;;13.48;3.90;;;;;;;19.74;44.69;100773.63;5102849;28;20166;-65
2022/06/11 11:37:14;;;;;;;20.45;4.53;;;;;;;19.46;45.50;100775.59;5102448;28;20020;-66
2022/06/11 11:39:52;;;;;;;16.95;3.78;;;;;;;19.29;46.54;100781.53;5105944;28;20054;-65
2022/06/11 11:42:34;;;;;;;20.65;4.80;;;;;;;19.25;46.94;100766.78;5105945;28;20510;-66